createdAt,value
2022-09-16T00:00:13.330Z,93.70
2022-09-16T00:03:16.921Z,93.60
2022-09-16T00:06:26.906Z,94.30
2022-09-16T00:09:28.530Z,93.80
2022-09-16T00:12:30.121Z,93.70
2022-09-16T00:15:31.859Z,93.80
2022-09-16T00:18:33.412Z,93.80
2022-09-16T00:21:35.059Z,93.80
2022-09-16T00:24:36.666Z,94.30
2022-09-16T00:27:38.167Z,93.90
2022-09-16T00:30:39.696Z,93.90
2022-09-16T00:33:41.314Z,93.90
2022-09-16T00:36:42.829Z,93.90
2022-09-16T00:39:44.421Z,94.10
2022-09-16T00:42:45.948Z,93.90
2022-09-16T00:45:55.511Z,94.10
2022-09-16T00:49:00.772Z,94.10
2022-09-16T00:52:05.505Z,94.20
2022-09-16T00:55:10.825Z,94.80
2022-09-16T00:58:25.419Z,94.30
2022-09-16T01:01:27.013Z,93.60
2022-09-16T01:04:34.917Z,94.60
2022-09-16T01:07:43.735Z,94.30
2022-09-16T01:10:45.551Z,94.20
2022-09-16T01:13:48.466Z,94.10
2022-09-16T01:17:37.568Z,94.20
2022-09-16T01:20:53.909Z,93.50
2022-09-16T01:24:32.840Z,94.30
2022-09-16T01:28:12.156Z,93.60
2022-09-16T01:31:33.858Z,93.70
2022-09-16T01:35:20.479Z,93.50
2022-09-16T01:39:03.368Z,93.60
2022-09-16T01:42:20.807Z,93.80
2022-09-16T01:45:53.265Z,93.80
2022-09-16T01:48:58.584Z,93.80
2022-09-16T01:52:35.678Z,94.40
2022-09-16T01:55:45.590Z,94.40
2022-09-16T01:58:59.119Z,93.80
2022-09-16T02:02:16.511Z,94.50
2022-09-16T02:05:26.530Z,93.60
2022-09-16T02:08:37.751Z,94.50
2022-09-16T02:11:42.323Z,94.50
2022-09-16T02:14:47.157Z,94.40
2022-09-16T02:17:59.415Z,94.40
2022-09-16T02:21:04.271Z,94.40
2022-09-16T02:24:12.030Z,94.40
2022-09-16T02:27:17.912Z,94.40
2022-09-16T02:30:22.044Z,94.40
2022-09-16T02:33:26.599Z,94.40
2022-09-16T02:36:29.891Z,94.40
2022-09-16T02:39:35.396Z,94.60
2022-09-16T02:42:37.031Z,94.50
2022-09-16T02:46:12.615Z,94.50
2022-09-16T02:49:14.566Z,93.90
2022-09-16T02:52:24.088Z,94.50
2022-09-16T02:56:00.893Z,94.60
2022-09-16T02:59:05.679Z,94.10
2022-09-16T03:02:07.400Z,94.60
2022-09-16T03:05:09.625Z,94.60
2022-09-16T03:08:11.273Z,94.60
2022-09-16T03:11:29.458Z,94.60
2022-09-16T03:15:09.935Z,94.10
2022-09-16T03:18:52.987Z,94.20
2022-09-16T03:22:16.958Z,94.10
2022-09-16T03:25:37.480Z,94.40
2022-09-16T03:28:57.189Z,94.00
2022-09-16T03:32:05.031Z,94.20
2022-09-16T03:35:20.727Z,94.80
2022-09-16T03:38:23.077Z,94.90
2022-09-16T03:41:26.833Z,95.00
2022-09-16T03:44:35.132Z,94.90
2022-09-16T03:47:36.758Z,95.00
2022-09-16T03:50:38.417Z,94.70
2022-09-16T03:53:40.092Z,94.80
2022-09-16T03:56:45.091Z,94.70
2022-09-16T03:59:46.705Z,94.30
2022-09-16T04:02:48.272Z,94.80
2022-09-16T04:05:56.919Z,94.80
2022-09-16T04:09:00.764Z,94.90
2022-09-16T04:12:03.244Z,95.20
2022-09-16T04:15:05.238Z,94.80
2022-09-16T04:18:06.820Z,94.60
2022-09-16T04:21:09.598Z,95.10
2022-09-16T04:24:13.280Z,94.70
2022-09-16T04:27:15.147Z,94.70
2022-09-16T04:30:16.785Z,94.60
2022-09-16T04:33:19.098Z,94.60
2022-09-16T04:36:21.027Z,94.70
2022-09-16T04:39:22.992Z,94.80
2022-09-16T04:42:24.599Z,94.60
2022-09-16T04:45:26.369Z,94.60
2022-09-16T04:48:28.426Z,94.70
2022-09-16T04:51:32.304Z,94.30
2022-09-16T04:54:33.853Z,95.00
2022-09-16T04:57:35.400Z,94.70
2022-09-16T05:00:36.970Z,94.60
2022-09-16T05:03:42.978Z,94.60
2022-09-16T05:06:45.256Z,93.90
2022-09-16T05:09:46.907Z,95.00
2022-09-16T05:12:55.148Z,94.80
2022-09-16T05:16:00.658Z,95.10
2022-09-16T05:19:05.919Z,94.80
2022-09-16T05:22:07.531Z,94.60
2022-09-16T05:25:09.565Z,94.60
2022-09-16T05:28:11.196Z,94.50
2022-09-16T05:31:24.455Z,94.80
2022-09-16T05:34:28.937Z,94.10
2022-09-16T05:37:30.589Z,94.90
2022-09-16T05:40:32.284Z,94.60
2022-09-16T05:43:34.991Z,94.90
2022-09-16T05:46:37.421Z,94.90
2022-09-16T05:49:39.041Z,94.80
2022-09-16T05:52:40.668Z,94.60
2022-09-16T05:55:42.223Z,94.70
2022-09-16T05:58:43.940Z,94.50
2022-09-16T06:01:45.819Z,94.60
2022-09-16T06:04:47.823Z,94.70
2022-09-16T06:07:49.377Z,94.50
2022-09-16T06:10:51.045Z,94.60
2022-09-16T06:13:57.075Z,94.60
2022-09-16T06:16:58.627Z,94.70
2022-09-16T06:20:00.168Z,94.60
2022-09-16T06:23:01.702Z,94.60
2022-09-16T06:26:09.444Z,94.70
2022-09-16T06:29:12.598Z,94.80
2022-09-16T06:32:14.153Z,94.80
2022-09-16T06:35:15.784Z,94.70
2022-09-16T06:38:17.297Z,94.60
2022-09-16T06:41:20.380Z,94.70
2022-09-16T06:44:23.089Z,94.90
2022-09-16T06:47:24.657Z,95.40
2022-09-16T06:50:26.385Z,94.70
2022-09-16T06:53:28.696Z,94.70
2022-09-16T06:56:30.488Z,94.60
2022-09-16T06:59:32.038Z,94.50
2022-09-16T07:02:33.629Z,95.00
2022-09-16T07:05:35.378Z,94.60
2022-09-16T07:08:38.190Z,94.40
2022-09-16T07:11:40.718Z,94.40
2022-09-16T07:14:42.254Z,94.30
2022-09-16T07:17:43.879Z,94.90
2022-09-16T07:20:45.564Z,94.30
2022-09-16T07:23:48.673Z,94.40
2022-09-16T07:26:50.428Z,94.50
2022-09-16T07:29:53.816Z,94.50
2022-09-16T07:32:55.631Z,94.60
2022-09-16T07:36:00.992Z,94.20
2022-09-16T07:39:03.403Z,94.30
2022-09-16T07:42:06.198Z,93.90
2022-09-16T07:45:08.705Z,93.70
2022-09-16T07:48:10.417Z,93.50
2022-09-16T07:51:14.649Z,93.80
2022-09-16T07:54:17.965Z,93.70
2022-09-16T07:57:19.555Z,93.50
2022-09-16T08:00:21.973Z,93.20
2022-09-16T08:03:23.763Z,93.30
2022-09-16T08:06:29.530Z,93.40
2022-09-16T08:09:40.957Z,93.50
2022-09-16T08:12:48.750Z,93.60
2022-09-16T08:15:50.319Z,93.60
2022-09-16T08:18:55.223Z,93.50
2022-09-16T08:21:56.764Z,93.20
2022-09-16T08:24:58.325Z,92.80
2022-09-16T08:27:59.871Z,92.90
2022-09-16T08:31:02.126Z,93.40
2022-09-16T08:34:03.849Z,93.40
2022-09-16T08:37:05.530Z,93.50
2022-09-16T08:40:07.831Z,93.30
2022-09-16T08:43:47.397Z,93.10
2022-09-16T08:46:52.103Z,92.40
2022-09-16T08:49:54.932Z,92.70
2022-09-16T08:52:59.822Z,92.40
2022-09-16T08:56:04.681Z,92.30
2022-09-16T08:59:15.519Z,92.40
2022-09-16T09:02:38.744Z,92.30
2022-09-16T09:05:56.620Z,91.70
2022-09-16T09:09:41.247Z,91.50
2022-09-16T09:12:53.617Z,91.80
2022-09-16T09:16:16.259Z,92.60
2022-09-16T09:19:29.527Z,92.70
2022-09-16T09:23:00.332Z,92.70
2022-09-16T09:26:09.858Z,91.90
2022-09-16T09:29:23.508Z,91.80
2022-09-16T09:33:17.553Z,92.10
2022-09-16T09:36:42.499Z,91.20
2022-09-16T09:40:09.745Z,91.40
2022-09-16T09:43:25.578Z,91.20
2022-09-16T09:46:45.164Z,89.90
2022-09-16T09:49:51.192Z,91.60
2022-09-16T09:53:10.949Z,90.70
2022-09-16T09:56:20.180Z,89.30
2022-09-16T09:59:45.288Z,90.50
2022-09-16T10:02:49.931Z,90.50
2022-09-16T10:05:51.825Z,90.40
2022-09-16T10:08:56.222Z,90.10
2022-09-16T10:12:00.307Z,90.40
2022-09-16T10:15:02.446Z,90.70
2022-09-16T10:18:14.225Z,90.80
2022-09-16T10:21:17.381Z,89.90
2022-09-16T10:24:40.518Z,90.40
2022-09-16T10:27:42.082Z,90.20
2022-09-16T10:30:53.009Z,90.20
2022-09-16T10:33:54.964Z,89.20
2022-09-16T10:37:13.325Z,90.00
2022-09-16T10:40:18.242Z,88.50
2022-09-16T10:43:21.588Z,89.60
2022-09-16T10:46:23.219Z,90.20
2022-09-16T10:49:47.633Z,90.10
2022-09-16T10:52:49.688Z,90.50
2022-09-16T10:55:59.745Z,90.00
2022-09-16T10:59:12.169Z,90.00
2022-09-16T11:02:44.735Z,89.40
2022-09-16T11:06:14.329Z,87.30
2022-09-16T11:09:35.826Z,86.80
2022-09-16T11:12:44.305Z,86.10
2022-09-16T11:15:59.764Z,87.20
2022-09-16T11:19:10.057Z,86.70
2022-09-16T11:22:44.533Z,84.30
2022-09-16T11:26:07.447Z,84.40
2022-09-16T11:29:26.766Z,84.10
2022-09-16T11:32:48.619Z,87.00
2022-09-16T11:36:17.833Z,86.40
2022-09-16T11:39:31.709Z,87.10
2022-09-16T11:42:59.570Z,88.40
2022-09-16T11:46:29.538Z,89.30
2022-09-16T11:49:46.946Z,90.00
2022-09-16T11:53:03.071Z,89.80
2022-09-16T11:56:18.549Z,88.90
2022-09-16T11:59:31.727Z,88.40
2022-09-16T12:02:44.190Z,89.40
2022-09-16T12:06:04.669Z,89.80
2022-09-16T12:09:19.660Z,86.70
2022-09-16T12:12:25.723Z,86.60
2022-09-16T12:15:44.211Z,88.50
2022-09-16T12:18:50.362Z,88.10
2022-09-16T12:22:17.149Z,87.30
2022-09-16T12:25:28.868Z,85.40
2022-09-16T12:28:37.439Z,86.90
2022-09-16T12:31:53.791Z,87.70
2022-09-16T12:35:01.662Z,85.60
2022-09-16T12:38:03.657Z,87.20
2022-09-16T12:41:17.405Z,87.70
2022-09-16T12:44:54.475Z,85.80
2022-09-16T12:48:35.863Z,85.90
2022-09-16T12:52:15.287Z,85.20
2022-09-16T12:55:23.131Z,85.20
2022-09-16T12:58:33.593Z,86.20
2022-09-16T13:02:00.705Z,84.40
2022-09-16T13:05:32.566Z,85.70
2022-09-16T13:08:36.233Z,83.40
2022-09-16T13:12:24.157Z,85.40
2022-09-16T13:15:04.691Z,86.10
2022-09-16T13:18:40.027Z,87.30
2022-09-16T13:21:44.813Z,85.00
2022-09-16T13:25:06.120Z,86.20
2022-09-16T13:28:32.723Z,84.90
2022-09-16T13:31:49.091Z,86.20
2022-09-16T13:35:20.915Z,89.30
2022-09-16T13:38:35.918Z,90.00
2022-09-16T13:41:41.802Z,90.50
2022-09-16T13:44:43.754Z,90.80
2022-09-16T13:47:49.910Z,91.40
2022-09-16T13:51:00.127Z,91.30
2022-09-16T13:54:04.551Z,90.40
2022-09-16T13:57:30.946Z,91.70
2022-09-16T14:01:01.155Z,90.40
2022-09-16T14:04:39.318Z,90.30
2022-09-16T14:08:05.525Z,90.30
2022-09-16T14:11:22.444Z,90.20
2022-09-16T14:14:46.516Z,90.10
2022-09-16T14:17:55.690Z,90.90
2022-09-16T14:21:21.749Z,90.70
2022-09-16T14:24:23.400Z,89.40
2022-09-16T14:27:30.810Z,90.30
2022-09-16T14:30:32.393Z,90.90
2022-09-16T14:33:37.114Z,90.70
2022-09-16T14:36:40.576Z,90.80
2022-09-16T14:39:43.837Z,90.70
2022-09-16T14:43:06.793Z,90.70
2022-09-16T14:46:08.610Z,90.90
2022-09-16T14:49:15.246Z,90.40
2022-09-16T14:52:26.705Z,90.60
2022-09-16T14:55:31.649Z,88.50
2022-09-16T14:58:33.902Z,89.70
2022-09-16T15:01:35.655Z,89.10
2022-09-16T15:04:40.528Z,89.10
2022-09-16T15:08:02.588Z,87.30
2022-09-16T15:11:36.498Z,86.70
2022-09-16T15:14:41.420Z,84.30
2022-09-16T15:17:43.026Z,85.30
2022-09-16T15:20:56.890Z,85.50
2022-09-16T15:24:03.636Z,85.60
2022-09-16T15:27:05.541Z,86.60
2022-09-16T15:30:24.392Z,86.40
2022-09-16T15:33:31.099Z,86.80
2022-09-16T15:36:36.075Z,87.90
2022-09-16T15:39:39.032Z,88.10
2022-09-16T15:42:42.000Z,88.60
2022-09-16T15:45:58.260Z,88.80
2022-09-16T15:49:01.749Z,86.90
2022-09-16T15:52:09.744Z,88.90
2022-09-16T15:55:11.397Z,88.90
2022-09-16T15:58:33.061Z,88.80
2022-09-16T16:01:53.115Z,87.20
2022-09-16T16:05:06.457Z,89.20
2022-09-16T16:08:10.100Z,89.20
2022-09-16T16:11:14.540Z,89.40
2022-09-16T16:14:19.106Z,89.90
2022-09-16T16:17:22.656Z,89.40
2022-09-16T16:20:24.539Z,90.40
2022-09-16T16:23:26.267Z,90.60
2022-09-16T16:26:35.722Z,90.00
2022-09-16T16:29:38.841Z,90.60
2022-09-16T16:32:40.536Z,90.00
2022-09-16T16:35:42.178Z,90.50
2022-09-16T16:38:45.406Z,89.80
2022-09-16T16:41:46.916Z,89.60
2022-09-16T16:44:56.752Z,89.90
2022-09-16T16:47:58.619Z,88.90
2022-09-16T16:51:03.711Z,90.10
2022-09-16T16:54:07.962Z,89.90
2022-09-16T16:57:10.973Z,90.00
2022-09-16T17:00:14.375Z,90.50
2022-09-16T17:03:16.435Z,90.20
2022-09-16T17:06:20.817Z,90.40
2022-09-16T17:09:22.989Z,90.70
2022-09-16T17:12:25.456Z,90.50
2022-09-16T17:15:31.938Z,90.70
2022-09-16T17:18:38.301Z,91.30
2022-09-16T17:21:41.205Z,90.70
2022-09-16T17:24:45.523Z,91.20
2022-09-16T17:27:47.171Z,91.40
2022-09-16T17:30:48.823Z,90.90
2022-09-16T17:33:57.389Z,91.10
2022-09-16T17:36:59.247Z,90.30
2022-09-16T17:40:04.065Z,91.00
2022-09-16T17:43:07.187Z,90.20
2022-09-16T17:46:15.652Z,91.30
2022-09-16T17:49:23.897Z,91.50
2022-09-16T17:52:25.907Z,91.70
2022-09-16T17:55:27.535Z,91.80
2022-09-16T17:58:38.342Z,91.30
2022-09-16T18:01:40.460Z,91.30
2022-09-16T18:04:45.365Z,91.10
2022-09-16T18:07:48.451Z,90.60
2022-09-16T18:10:53.535Z,91.90
2022-09-16T18:13:58.151Z,91.30
2022-09-16T18:16:59.869Z,91.50
2022-09-16T18:20:06.815Z,91.50
2022-09-16T18:23:08.803Z,91.40
2022-09-16T18:26:14.184Z,91.40
2022-09-16T18:29:15.824Z,91.60
2022-09-16T18:32:17.492Z,91.40
2022-09-16T18:35:19.166Z,91.50
2022-09-16T18:38:20.791Z,91.40
2022-09-16T18:41:24.804Z,91.50
2022-09-16T18:44:26.521Z,91.30
2022-09-16T18:47:28.167Z,91.80
2022-09-16T18:50:29.928Z,92.30
2022-09-16T18:53:32.065Z,92.00
2022-09-16T18:56:35.952Z,92.00
2022-09-16T18:59:37.567Z,92.10
2022-09-16T19:02:39.261Z,92.00
2022-09-16T19:05:41.663Z,92.30
2022-09-16T19:08:44.117Z,92.10
2022-09-16T19:11:46.441Z,92.10
2022-09-16T19:14:48.269Z,92.10
2022-09-16T19:17:49.996Z,91.90
2022-09-16T19:20:52.085Z,92.00
2022-09-16T19:23:58.337Z,92.10
2022-09-16T19:27:00.021Z,92.50
2022-09-16T19:30:01.743Z,91.90
2022-09-16T19:33:03.684Z,92.20
2022-09-16T19:36:24.700Z,92.10
2022-09-16T19:39:27.832Z,91.10
2022-09-16T19:42:29.407Z,91.90
2022-09-16T19:45:31.217Z,91.80
2022-09-16T19:48:34.347Z,91.90
2022-09-16T19:51:36.125Z,92.30
2022-09-16T19:54:37.700Z,92.40
2022-09-16T19:57:39.434Z,91.80
2022-09-16T20:00:55.310Z,91.80
2022-09-16T20:03:58.603Z,91.90
2022-09-16T20:07:00.240Z,92.10
2022-09-16T20:10:02.318Z,92.70
2022-09-16T20:13:03.874Z,91.60
2022-09-16T20:16:08.922Z,92.00
2022-09-16T20:19:13.285Z,92.00
2022-09-16T20:22:14.836Z,92.10
2022-09-16T20:25:23.027Z,92.00
2022-09-16T20:28:28.938Z,92.10
2022-09-16T20:31:33.808Z,92.00
2022-09-16T20:34:35.556Z,92.20
2022-09-16T20:37:37.135Z,92.50
2022-09-16T20:40:38.706Z,92.10
2022-09-16T20:43:40.946Z,92.10
2022-09-16T20:46:42.770Z,92.10
2022-09-16T20:49:44.307Z,92.20
2022-09-16T20:52:49.215Z,92.10
2022-09-16T20:55:50.839Z,91.40
2022-09-16T20:58:53.293Z,92.20
2022-09-16T21:01:55.065Z,92.20
2022-09-16T21:04:56.808Z,92.70
2022-09-16T21:07:58.444Z,92.50
2022-09-16T21:11:11.612Z,92.40
2022-09-16T21:14:16.097Z,91.60
2022-09-16T21:17:19.890Z,92.30
2022-09-16T21:20:21.834Z,92.20
2022-09-16T21:23:23.461Z,92.40
2022-09-16T21:26:28.039Z,92.40
2022-09-16T21:29:30.993Z,92.40
2022-09-16T21:32:34.308Z,92.20
2022-09-16T21:35:37.022Z,92.70
2022-09-16T21:38:40.848Z,92.40
2022-09-16T21:41:44.557Z,92.30
2022-09-16T21:44:46.301Z,92.30
2022-09-16T21:47:49.232Z,92.30
2022-09-16T21:50:53.485Z,93.10
2022-09-16T21:53:55.229Z,92.50
2022-09-16T21:56:57.323Z,92.40
2022-09-16T21:59:59.293Z,92.70
2022-09-16T22:03:00.925Z,92.60
2022-09-16T22:06:03.676Z,92.90
2022-09-16T22:09:08.000Z,92.60
2022-09-16T22:12:09.702Z,92.50
2022-09-16T22:15:11.478Z,92.70
2022-09-16T22:18:13.171Z,92.70
2022-09-16T22:21:15.138Z,93.00
2022-09-16T22:24:20.091Z,93.60
2022-09-16T22:27:21.773Z,94.00
2022-09-16T22:30:23.528Z,93.50
2022-09-16T22:33:25.238Z,93.40
2022-09-16T22:36:29.955Z,93.70
2022-09-16T22:39:31.530Z,93.90
2022-09-16T22:42:33.354Z,93.80
2022-09-16T22:45:35.042Z,93.90
2022-09-16T22:48:37.266Z,94.00
2022-09-16T22:51:39.796Z,94.40
2022-09-16T22:54:41.388Z,94.00
2022-09-16T22:57:42.988Z,93.90
2022-09-16T23:00:44.546Z,93.80
2022-09-16T23:03:47.099Z,94.10
2022-09-16T23:06:48.831Z,94.10
2022-09-16T23:09:50.476Z,94.10
2022-09-16T23:12:51.995Z,94.20
2022-09-16T23:15:53.898Z,94.70
2022-09-16T23:18:57.927Z,94.30
2022-09-16T23:21:59.644Z,94.40
2022-09-16T23:25:01.558Z,94.40
2022-09-16T23:28:03.189Z,94.60
2022-09-16T23:31:05.719Z,94.40
2022-09-16T23:34:18.664Z,94.40
2022-09-16T23:37:20.215Z,94.80
2022-09-16T23:40:21.863Z,94.70
2022-09-16T23:43:25.232Z,94.70
2022-09-16T23:46:29.702Z,95.20
2022-09-16T23:49:31.321Z,95.10
2022-09-16T23:52:32.917Z,94.70
2022-09-16T23:55:34.667Z,94.70
2022-09-16T23:58:36.420Z,94.60
